Time;durP1;ratioP1;P1;durP2;ratioP2;P2;SDS_P1;SDS_P2;PMS_P1;PMS_P2;Temp;Humidity;BMP_temperature;BMP_pressure;BME280_temperature;BME280_humidity;BME280_pressure;Samples;Min_cycle;Max_cycle;Signal;HPM_P1;HPM_P2
2023/10/17 00:01:11;;;;;;;2.67;1.00;;;7.70;99.90;;;;;;5047953;28;20048;-62
2023/10/17 00:03:37;;;;;;;4.95;1.13;;;7.70;99.90;;;;;;5048234;28;20045;-62
2023/10/17 00:06:06;;;;;;;2.10;1.02;;;7.60;99.90;;;;;;5049754;28;20107;-84
2023/10/17 00:08:35;;;;;;;3.42;1.15;;;7.60;99.90;;;;;;5041897;28;20107;-62
2023/10/17 00:11:17;;;;;;;5.30;0.73;;;7.50;99.90;;;;;;5048238;28;20499;-62
2023/10/17 00:16:48;;;;;;;3.25;0.80;;;7.50;99.90;;;;;;4947183;29;20047;-62
2023/10/17 00:19:16;;;;;;;7.60;1.15;;;7.50;99.90;;;;;;4947614;29;20090;-63
2023/10/17 00:21:42;;;;;;;1.25;1.00;;;7.40;99.90;;;;;;4961860;28;20158;-62
2023/10/17 00:24:09;;;;;;;1.38;1.10;;;7.40;99.90;;;;;;5040657;28;20039;-80
2023/10/17 00:26:37;;;;;;;2.97;1.10;;;7.30;99.90;;;;;;5031635;28;20487;-62
2023/10/17 00:29:05;;;;;;;2.42;1.02;;;7.30;99.90;;;;;;5045852;28;20051;-62
2023/10/17 00:31:36;;;;;;;5.07;1.00;;;7.20;99.90;;;;;;5031617;28;20130;-66
2023/10/17 00:34:13;;;;;;;1.08;0.65;;;7.20;99.90;;;;;;5047520;28;20441;-62
2023/10/17 00:36:48;;;;;;;5.15;1.08;;;7.20;99.90;;;;;;5048712;28;20562;-86
2023/10/17 00:39:29;;;;;;;0.80;0.80;;;7.10;99.90;;;;;;5024999;28;20052;-73
2023/10/17 00:44:33;;;;;;;1.55;0.98;;;7.00;99.90;;;;;;5049608;28;20132;-62
2023/10/17 00:47:01;;;;;;;1.58;0.95;;;7.00;99.90;;;;;;5047846;28;20134;-62
2023/10/17 00:49:29;;;;;;;1.33;0.90;;;7.00;99.90;;;;;;5041808;28;20391;-63
2023/10/17 00:52:02;;;;;;;2.80;1.08;;;6.90;99.90;;;;;;5043770;28;20082;-62
2023/10/17 00:54:35;;;;;;;6.22;1.30;;;6.90;99.90;;;;;;5048063;28;20053;-62
2023/10/17 00:57:05;;;;;;;2.17;1.15;;;6.90;99.90;;;;;;5048822;28;20044;-62
2023/10/17 00:59:31;;;;;;;2.65;1.00;;;6.90;99.90;;;;;;5041680;28;20042;-67
2023/10/17 01:01:56;;;;;;;1.17;0.88;;;6.90;99.90;;;;;;5043116;28;20064;-66
2023/10/17 01:04:24;;;;;;;8.98;1.10;;;6.80;99.90;;;;;;5047439;28;20402;-70
2023/10/17 01:06:54;;;;;;;1.83;1.23;;;6.80;99.90;;;;;;5048419;28;20116;-62
2023/10/17 01:09:24;;;;;;;2.58;1.00;;;6.80;99.90;;;;;;5048128;28;20040;-62
2023/10/17 01:11:50;;;;;;;3.33;0.95;;;6.80;99.90;;;;;;5038235;28;20045;-73
2023/10/17 01:14:19;;;;;;;4.28;1.58;;;6.70;99.90;;;;;;5030554;28;20043;-62
2023/10/17 01:16:46;;;;;;;6.00;1.17;;;6.80;99.90;;;;;;5046896;28;20033;-67
2023/10/17 01:19:14;;;;;;;3.80;1.70;;;6.80;99.90;;;;;;5048598;28;20095;-62
2023/10/17 01:21:41;;;;;;;2.38;1.08;;;6.80;99.90;;;;;;5038954;28;20037;-68
2023/10/17 01:24:08;;;;;;;3.55;0.98;;;6.80;99.90;;;;;;5048235;28;20056;-62
2023/10/17 01:26:37;;;;;;;2.45;1.05;;;6.80;99.90;;;;;;5013209;28;20143;-62
2023/10/17 01:29:04;;;;;;;2.55;1.35;;;6.80;99.90;;;;;;5046993;28;20053;-68
2023/10/17 01:31:38;;;;;;;1.35;1.10;;;6.70;99.90;;;;;;5042023;28;20041;-62
2023/10/17 01:34:05;;;;;;;1.40;1.30;;;6.70;99.90;;;;;;5044912;28;20096;-82
2023/10/17 01:36:31;;;;;;;0.98;0.98;;;6.70;99.90;;;;;;5048122;28;20053;-63
2023/10/17 01:38:56;;;;;;;2.05;1.10;;;6.60;99.90;;;;;;5046020;28;20037;-76
2023/10/17 01:41:22;;;;;;;2.83;1.00;;;6.70;99.90;;;;;;5039067;28;20429;-64
2023/10/17 01:43:50;;;;;;;2.45;1.10;;;6.60;99.90;;;;;;5063983;28;20048;-62
2023/10/17 01:46:21;;;;;;;1.77;1.30;;;6.70;99.90;;;;;;5052929;28;20076;-76
2023/10/17 01:48:48;;;;;;;1.10;1.10;;;6.60;99.90;;;;;;5059823;28;20041;-62
2023/10/17 01:51:15;;;;;;;4.13;1.30;;;6.60;99.90;;;;;;5043921;28;20479;-85
2023/10/17 01:53:43;;;;;;;1.88;1.20;;;6.60;99.90;;;;;;5059478;28;20037;-82
2023/10/17 01:56:22;;;;;;;1.45;1.23;;;6.60;99.90;;;;;;5038301;28;20406;-62
2023/10/17 01:58:48;;;;;;;1.33;1.23;;;6.60;99.90;;;;;;5048026;28;20509;-62
2023/10/17 02:01:29;;;;;;;1.73;1.00;;;6.60;99.90;;;;;;5044836;28;20080;-62
2023/10/17 02:04:03;;;;;;;3.00;1.30;;;6.60;99.90;;;;;;5046096;28;20507;-62
2023/10/17 02:06:31;;;;;;;1.23;0.93;;;6.70;99.90;;;;;;5050971;28;20505;-62
2023/10/17 02:08:58;;;;;;;2.45;1.00;;;6.70;99.90;;;;;;5026782;28;20072;-63
2023/10/17 02:11:25;;;;;;;2.30;1.55;;;6.70;99.90;;;;;;5030018;28;20557;-62
2023/10/17 02:13:51;;;;;;;2.03;1.15;;;6.70;99.90;;;;;;5046498;28;20063;-62
2023/10/17 02:16:17;;;;;;;2.55;1.27;;;6.70;99.90;;;;;;5046931;28;20048;-62
2023/10/17 02:18:44;;;;;;;4.05;1.40;;;6.70;99.90;;;;;;5047297;28;20040;-62
2023/10/17 02:21:12;;;;;;;3.92;1.25;;;6.70;99.90;;;;;;5046067;28;20049;-62
2023/10/17 02:23:48;;;;;;;3.05;1.45;;;6.70;99.90;;;;;;5047584;28;20068;-62
2023/10/17 02:26:15;;;;;;;1.35;1.08;;;6.70;99.90;;;;;;5044471;28;20041;-62
2023/10/17 02:28:47;;;;;;;1.88;1.20;;;6.60;99.90;;;;;;5047263;28;20122;-62
2023/10/17 02:31:16;;;;;;;1.50;1.40;;;6.60;99.90;;;;;;5046098;28;20512;-71
2023/10/17 02:33:42;;;;;;;2.33;1.17;;;6.70;99.90;;;;;;5047006;28;20060;-62
2023/10/17 02:36:16;;;;;;;5.68;1.85;;;6.60;99.90;;;;;;5047011;28;20391;-62
2023/10/17 02:38:46;;;;;;;1.45;1.20;;;6.60;99.90;;;;;;5044605;28;20056;-69
2023/10/17 02:41:18;;;;;;;2.17;1.50;;;6.60;99.90;;;;;;5046525;28;20507;-63
2023/10/17 02:43:46;;;;;;;4.28;1.90;;;6.70;99.90;;;;;;5045564;28;20059;-71
2023/10/17 02:46:14;;;;;;;2.85;1.83;;;6.60;99.90;;;;;;5047142;28;20053;-62
2023/10/17 02:48:42;;;;;;;3.42;1.50;;;6.60;99.90;;;;;;5044515;28;20403;-62
2023/10/17 02:53:52;;;;;;;2.38;1.30;;;6.60;99.90;;;;;;5047428;28;20051;-62
2023/10/17 02:56:21;;;;;;;5.35;1.58;;;6.60;99.90;;;;;;5045260;28;20495;-62
2023/10/17 02:59:04;;;;;;;3.30;1.40;;;6.60;99.90;;;;;;5045680;28;20519;-62
2023/10/17 03:01:36;;;;;;;4.28;1.38;;;6.60;99.90;;;;;;5046071;28;20060;-62
2023/10/17 03:04:09;;;;;;;1.15;1.00;;;6.60;99.90;;;;;;5043870;28;20064;-62
2023/10/17 03:06:41;;;;;;;1.25;1.10;;;6.70;99.90;;;;;;5047758;28;20041;-62
2023/10/17 03:14:40;;;;;;;1.52;1.05;;;6.60;99.90;;;;;;5045192;28;20091;-62
2023/10/17 03:17:08;;;;;;;2.33;1.20;;;6.60;99.90;;;;;;5046455;28;20053;-83
2023/10/17 03:19:34;;;;;;;1.48;1.13;;;6.60;99.90;;;;;;5046472;28;20083;-62
2023/10/17 03:24:48;;;;;;;1.95;1.20;;;6.70;99.90;;;;;;5050728;28;20036;-62
2023/10/17 03:27:33;;;;;;;5.10;1.55;;;6.80;99.90;;;;;;5048721;28;20507;-62
2023/10/17 03:30:11;;;;;;;3.40;1.42;;;6.70;99.90;;;;;;5048938;28;20094;-62
2023/10/17 03:32:53;;;;;;;3.50;1.58;;;6.80;99.90;;;;;;5050174;28;20392;-62
2023/10/17 03:35:21;;;;;;;2.33;1.50;;;6.80;99.90;;;;;;5030692;28;20060;-62
2023/10/17 03:37:47;;;;;;;1.98;1.45;;;6.80;99.90;;;;;;5050198;28;20044;-81
2023/10/17 03:40:19;;;;;;;1.50;1.40;;;6.90;99.90;;;;;;5046980;28;20163;-62
2023/10/17 03:42:50;;;;;;;5.03;1.27;;;6.80;99.90;;;;;;5050188;28;20124;-62
2023/10/17 03:45:17;;;;;;;6.15;1.67;;;6.90;99.90;;;;;;5049137;28;20048;-62
2023/10/17 03:47:47;;;;;;;2.10;1.80;;;6.80;99.90;;;;;;5049218;28;20044;-62
2023/10/17 03:50:31;;;;;;;1.30;1.20;;;6.90;99.90;;;;;;5049942;28;20084;-82
2023/10/17 03:53:07;;;;;;;3.10;1.63;;;6.90;99.90;;;;;;5046909;28;20414;-62
2023/10/17 03:55:35;;;;;;;1.85;1.42;;;6.90;99.90;;;;;;5050388;28;20048;-62
2023/10/17 03:58:08;;;;;;;2.53;1.67;;;6.90;99.90;;;;;;5049296;28;20049;-62
2023/10/17 04:00:41;;;;;;;2.25;1.27;;;6.90;99.90;;;;;;5049152;28;20491;-62
2023/10/17 04:03:18;;;;;;;2.88;1.48;;;7.00;99.90;;;;;;5046233;28;20159;-62
2023/10/17 04:05:44;;;;;;;1.90;1.48;;;7.00;99.90;;;;;;5032443;28;20041;-62
2023/10/17 04:08:10;;;;;;;8.55;1.70;;;7.10;99.90;;;;;;5049810;28;20191;-62
2023/10/17 04:10:46;;;;;;;5.95;1.48;;;7.20;99.90;;;;;;5046201;28;20596;-62
2023/10/17 04:13:34;;;;;;;1.27;1.08;;;7.20;99.90;;;;;;5031374;28;20060;-62
2023/10/17 04:16:08;;;;;;;4.88;1.33;;;7.10;99.90;;;;;;5049641;28;20053;-62
2023/10/17 04:18:37;;;;;;;3.22;1.13;;;7.20;99.90;;;;;;5047988;28;20116;-62
2023/10/17 04:24:01;;;;;;;2.28;1.20;;;7.30;99.90;;;;;;5029286;28;20064;-62
2023/10/17 04:26:27;;;;;;;4.05;1.52;;;7.30;99.90;;;;;;5048098;28;20037;-62
2023/10/17 04:29:00;;;;;;;5.30;1.30;;;7.30;99.90;;;;;;5031669;28;20045;-62
2023/10/17 04:31:28;;;;;;;5.22;1.20;;;7.20;99.90;;;;;;5046102;28;20040;-62
2023/10/17 04:34:06;;;;;;;1.67;1.27;;;7.40;99.90;;;;;;5047354;28;20067;-62
2023/10/17 04:36:38;;;;;;;5.97;1.83;;;7.30;99.90;;;;;;5041274;28;20120;-62
2023/10/17 04:39:18;;;;;;;1.55;1.38;;;7.30;99.90;;;;;;5049514;28;20075;-62
2023/10/17 04:44:36;;;;;;;1.58;1.48;;;7.40;99.90;;;;;;5047516;28;20151;-62
2023/10/17 04:49:30;;;;;;;2.30;1.30;;;7.40;99.90;;;;;;5028932;28;20053;-62
2023/10/17 04:52:08;;;;;;;2.05;1.13;;;7.40;99.90;;;;;;5048832;28;20508;-62
2023/10/17 04:57:05;;;;;;;2.00;1.30;;;7.40;99.90;;;;;;5046488;28;20403;-62
2023/10/17 05:02:36;;;;;;;3.33;1.52;;;7.50;99.90;;;;;;5037211;28;20049;-62
2023/10/17 05:07:34;;;;;;;3.80;1.15;;;7.50;99.90;;;;;;5046235;28;20529;-62
2023/10/17 06:18:58;;;;;;;2.80;1.48;;;7.80;99.90;;;;;;5047601;28;20498;-63
2023/10/17 06:21:36;;;;;;;1.63;0.90;;;7.80;99.90;;;;;;5049163;28;20071;-62
2023/10/17 06:24:06;;;;;;;6.18;1.50;;;7.80;99.90;;;;;;5045845;28;20621;-62
2023/10/17 06:34:15;;;;;;;3.97;1.50;;;7.90;99.90;;;;;;5022869;28;20084;-63
2023/10/17 06:36:42;;;;;;;5.55;1.92;;;7.90;99.90;;;;;;5011469;28;20036;-62
2023/10/17 06:39:14;;;;;;;1.70;0.90;;;7.90;99.90;;;;;;5047384;28;20114;-62
2023/10/17 06:41:40;;;;;;;2.88;1.10;;;7.90;99.90;;;;;;5043834;28;20053;-62
2023/10/17 06:44:06;;;;;;;1.95;1.13;;;7.90;99.90;;;;;;5047500;28;20202;-62
2023/10/17 06:54:45;;;;;;;4.00;1.17;;;8.00;99.90;;;;;;5038966;28;20056;-62
2023/10/17 06:57:23;;;;;;;2.22;0.98;;;8.00;99.90;;;;;;5049806;28;20422;-63
2023/10/17 06:59:54;;;;;;;0.80;0.80;;;8.10;99.90;;;;;;5049496;28;20429;-62
2023/10/17 07:02:30;;;;;;;1.30;1.05;;;8.00;99.90;;;;;;5050503;28;20041;-63
2023/10/17 07:05:00;;;;;;;4.05;1.23;;;8.00;99.90;;;;;;5049684;28;20585;-63
2023/10/17 07:07:39;;;;;;;9.43;1.67;;;8.10;99.90;;;;;;5031451;28;20082;-62
2023/10/17 07:13:35;;;;;;;2.53;1.40;;;8.20;99.90;;;;;;5029499;28;20589;-62
2023/10/17 07:16:16;;;;;;;2.45;1.13;;;8.20;99.90;;;;;;5047372;28;20041;-62
2023/10/17 07:18:51;;;;;;;8.52;1.40;;;8.30;99.90;;;;;;5050374;28;20116;-62
2023/10/17 07:21:23;;;;;;;3.15;1.33;;;8.40;99.90;;;;;;5031177;28;20049;-62
2023/10/17 07:23:49;;;;;;;3.85;1.52;;;8.40;99.90;;;;;;5049787;28;20475;-62
2023/10/17 07:26:24;;;;;;;5.55;1.45;;;8.40;99.90;;;;;;5030116;28;20053;-62
2023/10/17 07:28:52;;;;;;;4.35;1.52;;;8.40;99.90;;;;;;5048813;28;20151;-62
2023/10/17 07:31:20;;;;;;;5.03;1.90;;;8.60;99.90;;;;;;5050424;28;20041;-62
2023/10/17 07:33:47;;;;;;;6.32;2.10;;;8.60;99.90;;;;;;5048152;28;20085;-62
2023/10/17 07:36:15;;;;;;;6.78;2.60;;;8.70;99.90;;;;;;5048792;28;20487;-62
2023/10/17 07:38:45;;;;;;;8.13;2.15;;;8.70;99.90;;;;;;5029019;28;20156;-62
2023/10/17 07:41:14;;;;;;;2.58;2.28;;;8.80;99.90;;;;;;5042553;28;20057;-62
2023/10/17 07:43:47;;;;;;;4.78;2.40;;;8.90;99.90;;;;;;5049482;28;20056;-62
2023/10/17 07:46:25;;;;;;;4.55;2.28;;;8.90;99.90;;;;;;5031301;28;20047;-62
2023/10/17 07:48:51;;;;;;;3.50;2.45;;;8.90;99.90;;;;;;5049449;28;20041;-62
2023/10/17 07:51:18;;;;;;;4.40;2.28;;;9.10;99.90;;;;;;5048340;28;20070;-62
2023/10/17 07:53:47;;;;;;;10.32;2.85;;;9.10;99.90;;;;;;5051682;28;20171;-62
2023/10/17 07:56:20;;;;;;;7.43;2.70;;;9.10;99.90;;;;;;5049407;28;20041;-62
2023/10/17 07:59:04;;;;;;;3.38;2.28;;;9.20;99.90;;;;;;5045432;28;20053;-62
2023/10/17 08:01:41;;;;;;;3.78;2.08;;;9.20;99.90;;;;;;5052429;28;20048;-62
2023/10/17 08:04:17;;;;;;;4.38;2.20;;;9.30;99.90;;;;;;5025190;28;20068;-62
2023/10/17 08:06:47;;;;;;;3.65;2.25;;;9.30;99.90;;;;;;5032378;28;20486;-62
2023/10/17 08:11:54;;;;;;;4.93;1.95;;;9.20;99.90;;;;;;5044693;28;20084;-62
2023/10/17 08:14:26;;;;;;;5.35;1.92;;;9.20;99.90;;;;;;5027933;28;20164;-62
2023/10/17 08:16:55;;;;;;;2.60;1.52;;;9.20;99.90;;;;;;5018204;28;20461;-62
2023/10/17 08:19:23;;;;;;;2.00;1.52;;;9.10;99.90;;;;;;5046611;28;20048;-62
2023/10/17 08:24:33;;;;;;;5.90;2.03;;;9.10;99.90;;;;;;5029281;28;20538;-62
2023/10/17 08:29:49;;;;;;;4.72;1.35;;;9.10;99.90;;;;;;5046636;28;20099;-62
2023/10/17 08:35:10;;;;;;;7.60;1.45;;;9.10;99.90;;;;;;5047323;28;20051;-62
2023/10/17 08:37:43;;;;;;;3.92;1.60;;;9.30;99.90;;;;;;5041952;28;20051;-62
2023/10/17 08:40:32;;;;;;;3.33;1.45;;;9.50;99.90;;;;;;5048069;28;20525;-62
2023/10/17 08:43:00;;;;;;;7.93;1.70;;;9.70;99.90;;;;;;5041073;28;20076;-62
2023/10/17 08:45:26;;;;;;;1.83;1.40;;;9.80;99.90;;;;;;5048971;28;20437;-62
2023/10/17 08:48:01;;;;;;;5.70;1.42;;;10.00;99.90;;;;;;5047266;28;20074;-63
2023/10/17 08:50:43;;;;;;;4.55;1.70;;;10.00;99.90;;;;;;5020116;28;20045;-62
2023/10/17 08:55:43;;;;;;;5.45;0.98;;;10.20;99.90;;;;;;5047081;28;20053;-62
2023/10/17 08:58:09;;;;;;;3.00;1.23;;;10.30;99.90;;;;;;5048318;28;20084;-62
2023/10/17 09:03:23;;;;;;;6.10;1.25;;;10.40;99.90;;;;;;5048118;28;20141;-62
2023/10/17 09:11:29;;;;;;;2.53;0.80;;;10.70;99.90;;;;;;5035105;28;20049;-62
2023/10/17 09:14:15;;;;;;;2.15;1.02;;;10.70;99.90;;;;;;5040862;28;20098;-62
2023/10/17 09:17:00;;;;;;;2.90;1.27;;;10.80;99.90;;;;;;5048258;28;20399;-62
2023/10/17 09:19:25;;;;;;;2.90;2.00;;;10.90;99.90;;;;;;5029599;28;20033;-62
2023/10/17 09:21:51;;;;;;;3.22;0.80;;;10.90;99.90;;;;;;4995225;28;20107;-62
2023/10/17 09:24:29;;;;;;;1.63;0.73;;;10.90;99.90;;;;;;5029704;28;20426;-62
2023/10/17 09:26:56;;;;;;;2.20;0.70;;;11.00;99.90;;;;;;5047148;28;20045;-63
2023/10/17 09:29:22;;;;;;;1.05;0.60;;;11.10;99.90;;;;;;5030045;28;20049;-62
2023/10/17 09:31:50;;;;;;;2.75;0.60;;;11.20;99.90;;;;;;5046334;28;20045;-62
2023/10/17 09:34:17;;;;;;;2.22;0.88;;;11.30;99.90;;;;;;5026115;28;20419;-62
2023/10/17 09:36:46;;;;;;;5.28;0.90;;;11.50;99.90;;;;;;5028877;28;20098;-62
2023/10/17 09:39:15;;;;;;;4.90;1.02;;;11.50;99.90;;;;;;5027350;28;20055;-63
2023/10/17 09:41:41;;;;;;;2.55;1.02;;;11.70;99.90;;;;;;5047674;28;20064;-62
2023/10/17 09:44:10;;;;;;;2.67;0.80;;;11.80;99.90;;;;;;5044169;28;20068;-62
2023/10/17 09:46:37;;;;;;;2.33;0.98;;;11.90;99.90;;;;;;5048224;28;20069;-62
2023/10/17 09:49:05;;;;;;;1.42;0.93;;;11.90;99.90;;;;;;5046698;28;20462;-62
2023/10/17 09:51:35;;;;;;;1.67;0.75;;;12.00;99.90;;;;;;5027306;28;20483;-62
2023/10/17 09:54:04;;;;;;;2.47;0.73;;;12.00;99.90;;;;;;5024895;28;20258;-62
2023/10/17 09:56:50;;;;;;;1.35;0.55;;;12.00;99.90;;;;;;5028058;28;20208;-62
2023/10/17 09:59:25;;;;;;;3.00;0.82;;;12.10;99.90;;;;;;5047528;28;20048;-62
2023/10/17 10:01:51;;;;;;;1.80;0.73;;;12.20;99.90;;;;;;5046629;28;20052;-62
2023/10/17 10:04:20;;;;;;;1.55;0.70;;;12.20;98.70;;;;;;5042600;28;20083;-62
2023/10/17 10:06:46;;;;;;;5.28;0.85;;;12.10;97.90;;;;;;5048012;28;20041;-65
2023/10/17 10:09:14;;;;;;;3.83;0.80;;;12.10;94.70;;;;;;5045834;28;20608;-62
2023/10/17 10:11:49;;;;;;;3.60;0.80;;;12.10;91.50;;;;;;5047973;28;20056;-62
2023/10/17 10:14:34;;;;;;;2.33;0.90;;;12.00;91.90;;;;;;5043853;28;20052;-62
2023/10/17 10:17:04;;;;;;;4.85;1.10;;;12.00;92.20;;;;;;5038979;28;20056;-62
2023/10/17 10:19:50;;;;;;;1.77;0.80;;;11.90;87.80;;;;;;5047451;28;20072;-62
2023/10/17 10:22:17;;;;;;;4.68;1.15;;;11.90;94.30;;;;;;5031868;28;20057;-62
2023/10/17 10:24:46;;;;;;;3.03;0.80;;;11.90;97.00;;;;;;5046092;28;20037;-62
2023/10/17 10:27:15;;;;;;;5.85;1.25;;;12.00;95.30;;;;;;5045540;28;20053;-62
2023/10/17 10:29:42;;;;;;;2.45;0.80;;;12.00;95.70;;;;;;5046433;28;20530;-62
2023/10/17 10:32:33;;;;;;;5.68;0.93;;;12.00;92.70;;;;;;5049859;28;20041;-62
2023/10/17 10:34:59;;;;;;;;;;;12.00;84.20;;;;;;5050161;28;20095;-62
2023/10/17 10:37:25;;;;;;;4.05;0.70;;;12.10;87.90;;;;;;5050502;28;20378;-62
2023/10/17 10:40:32;;;;;;;1.02;0.55;;;12.10;76.50;;;;;;5049218;28;20041;-62
2023/10/17 10:43:01;;;;;;;2.67;0.45;;;12.10;80.50;;;;;;5046384;28;20099;-62
2023/10/17 10:45:31;;;;;;;2.78;0.73;;;12.20;82.50;;;;;;5050414;28;20402;-64
2023/10/17 10:47:58;;;;;;;1.30;0.65;;;12.30;80.10;;;;;;5038794;28;20040;-62
2023/10/17 10:50:26;;;;;;;2.65;0.50;;;12.30;81.60;;;;;;5029819;28;20208;-62
2023/10/17 10:52:51;;;;;;;0.75;0.57;;;12.40;77.30;;;;;;5045826;28;20044;-62
2023/10/17 10:55:17;;;;;;;1.95;0.77;;;12.40;71.80;;;;;;5050867;28;20052;-62
2023/10/17 10:57:46;;;;;;;3.53;0.98;;;12.50;72.10;;;;;;5047790;28;20069;-62
2023/10/17 11:00:15;;;;;;;2.03;0.80;;;12.50;70.10;;;;;;5041071;28;20392;-62
2023/10/17 11:02:42;;;;;;;1.75;0.43;;;12.60;66.90;;;;;;5050329;28;20254;-62
2023/10/17 11:05:13;;;;;;;3.78;0.60;;;12.60;47.90;;;;;;4997008;28;20042;-62
2023/10/17 11:07:39;;;;;;;3.05;0.45;;;12.60;36.20;;;;;;5043549;28;20099;-62
2023/10/17 11:10:06;;;;;;;1.77;0.43;;;12.70;47.20;;;;;;5047195;28;20037;-62
2023/10/17 11:12:35;;;;;;;1.25;0.50;;;12.70;16.10;;;;;;5032520;28;20135;-62
2023/10/17 11:15:25;;;;;;;0.20;0.20;;;12.70;21.30;;;;;;5049162;28;20045;-62
2023/10/17 11:17:59;;;;;;;0.77;0.50;;;12.80;22.60;;;;;;5049603;28;20049;-62
2023/10/17 11:20:27;;;;;;;1.00;0.47;;;12.90;27.50;;;;;;5050935;28;20120;-62
2023/10/17 11:22:53;;;;;;;0.55;0.50;;;12.90;16.70;;;;;;5048951;28;20040;-62
2023/10/17 11:25:26;;;;;;;1.55;0.50;;;12.90;8.80;;;;;;5032542;28;20052;-62
2023/10/17 11:28:07;;;;;;;2.80;0.47;;;12.90;9.40;;;;;;5048922;28;20041;-62
2023/10/17 11:30:40;;;;;;;2.05;0.70;;;12.80;1.00;;;;;;5041377;28;20041;-62
2023/10/17 11:33:11;;;;;;;8.90;0.70;;;12.80;11.70;;;;;;5031853;28;20134;-62
2023/10/17 11:35:52;;;;;;;0.75;0.57;;;12.90;2.30;;;;;;5031403;28;20067;-63
2023/10/17 11:38:37;;;;;;;1.25;0.55;;;12.90;5.80;;;;;;5049849;28;20394;-62
2023/10/17 11:41:10;;;;;;;1.35;0.80;;;12.80;7.50;;;;;;5042225;28;20171;-62
2023/10/17 11:43:37;;;;;;;3.13;0.90;;;12.90;3.70;;;;;;5035526;28;20422;-61
2023/10/17 11:46:03;;;;;;;2.33;0.55;;;12.90;2.70;;;;;;5049835;28;20057;-62
2023/10/17 11:48:33;;;;;;;0.80;0.50;;;12.90;1.00;;;;;;5030873;28;20056;-62
2023/10/17 11:51:16;;;;;;;2.55;0.52;;;12.90;1.00;;;;;;5044513;28;20127;-62
2023/10/17 11:54:09;;;;;;;1.92;0.68;;;12.90;1.00;;;;;;5048790;28;20079;-62
2023/10/17 11:56:40;;;;;;;1.65;0.45;;;13.00;3.90;;;;;;5049225;28;20517;-63
2023/10/17 11:59:17;;;;;;;0.85;0.52;;;13.00;10.50;;;;;;5032198;28;20041;-62
2023/10/17 12:01:49;;;;;;;4.60;0.70;;;13.10;9.10;;;;;;5027455;28;20434;-62
2023/10/17 12:04:17;;;;;;;2.40;0.70;;;13.20;1.00;;;;;;5049862;28;20430;-62
2023/10/17 12:06:46;;;;;;;5.05;0.70;;;13.20;1.00;;;;;;5048007;28;20037;-62
2023/10/17 12:09:17;;;;;;;0.50;0.50;;;13.20;1.00;;;;;;5031779;28;20051;-62
2023/10/17 12:11:51;;;;;;;2.22;0.57;;;13.20;1.00;;;;;;5029274;28;20059;-62
2023/10/17 12:14:21;;;;;;;1.27;0.75;;;13.20;1.00;;;;;;5048848;28;20043;-62
2023/10/17 12:16:48;;;;;;;0.93;0.68;;;13.20;1.00;;;;;;5049856;28;20036;-62
2023/10/17 12:19:19;;;;;;;0.50;0.50;;;13.20;1.00;;;;;;5048178;28;20044;-62
2023/10/17 12:21:48;;;;;;;3.67;0.88;;;13.20;1.00;;;;;;5046015;28;20087;-63
2023/10/17 12:24:24;;;;;;;2.97;0.70;;;13.30;1.00;;;;;;5029776;28;20048;-62
2023/10/17 12:26:50;;;;;;;1.92;0.60;;;13.30;1.00;;;;;;5032170;28;20094;-62
2023/10/17 12:29:19;;;;;;;1.90;0.60;;;13.40;1.00;;;;;;5049266;28;20045;-62
2023/10/17 12:31:46;;;;;;;2.90;0.63;;;13.50;1.00;;;;;;5047649;28;20060;-62
2023/10/17 12:34:18;;;;;;;2.70;0.90;;;13.60;1.00;;;;;;5044307;28;20132;-62
2023/10/17 12:36:46;;;;;;;0.95;0.50;;;13.50;1.00;;;;;;5034338;28;20410;-62
2023/10/17 12:39:12;;;;;;;2.25;0.60;;;13.60;1.00;;;;;;5049889;28;20063;-62
2023/10/17 12:41:39;;;;;;;1.83;0.73;;;13.60;1.00;;;;;;5045292;28;20726;-62
2023/10/17 12:44:05;;;;;;;2.60;0.63;;;13.70;1.00;;;;;;5049173;28;20044;-62
2023/10/17 12:46:31;;;;;;;1.17;0.55;;;13.70;1.00;;;;;;5048278;28;20048;-62
2023/10/17 12:48:57;;;;;;;2.90;0.68;;;13.80;1.00;;;;;;5048416;28;20044;-62
2023/10/17 12:51:23;;;;;;;5.22;0.75;;;13.70;1.00;;;;;;5048431;28;20106;-62
2023/10/17 12:53:51;;;;;;;1.13;0.65;;;13.70;1.00;;;;;;5006989;28;20061;-62
2023/10/17 12:56:17;;;;;;;0.47;0.43;;;13.60;1.00;;;;;;5042164;28;20438;-62
2023/10/17 12:58:44;;;;;;;4.07;0.70;;;13.60;1.00;;;;;;5046220;28;20088;-62
2023/10/17 13:01:12;;;;;;;0.65;0.40;;;13.70;1.00;;;;;;5048812;28;20098;-62
2023/10/17 13:03:38;;;;;;;1.55;0.50;;;13.70;1.00;;;;;;5045884;28;20049;-62
2023/10/17 13:06:09;;;;;;;2.28;0.50;;;13.70;1.00;;;;;;5038731;28;20041;-62
2023/10/17 13:08:35;;;;;;;2.25;0.50;;;13.60;1.00;;;;;;5048090;28;20082;-62
2023/10/17 13:11:02;;;;;;;2.38;0.50;;;13.50;1.00;;;;;;5046796;28;20044;-62
2023/10/17 13:13:32;;;;;;;0.85;0.32;;;13.40;1.00;;;;;;5046646;28;20571;-62
2023/10/17 13:15:59;;;;;;;2.63;0.40;;;13.50;1.00;;;;;;5029093;28;20045;-62
2023/10/17 13:18:28;;;;;;;1.05;0.50;;;13.50;1.00;;;;;;5048135;28;20092;-62
2023/10/17 13:20:57;;;;;;;3.60;0.52;;;13.50;1.00;;;;;;5047565;28;20045;-62
2023/10/17 13:23:23;;;;;;;3.63;0.60;;;13.60;1.00;;;;;;5029756;28;20486;-60
2023/10/17 13:25:49;;;;;;;1.38;0.32;;;13.60;1.00;;;;;;5028976;28;20064;-60
2023/10/17 13:28:16;;;;;;;1.08;0.47;;;13.60;1.00;;;;;;5046914;28;20075;-60
2023/10/17 13:30:42;;;;;;;1.00;0.50;;;13.60;1.00;;;;;;5048104;28;20102;-60
2023/10/17 13:33:07;;;;;;;1.50;0.47;;;13.50;1.00;;;;;;5046271;28;20045;-61
2023/10/17 13:35:37;;;;;;;1.63;0.50;;;13.50;1.00;;;;;;5035445;28;20455;-61
2023/10/17 13:38:03;;;;;;;1.55;0.43;;;13.50;1.00;;;;;;5046943;28;20053;-61
2023/10/17 13:40:32;;;;;;;1.10;0.35;;;13.50;1.00;;;;;;5029776;28;20049;-61
2023/10/17 13:43:00;;;;;;;2.05;0.30;;;13.50;1.00;;;;;;5029898;28;20489;-61
2023/10/17 13:45:27;;;;;;;2.95;0.35;;;13.50;1.00;;;;;;5042287;28;20041;-61
2023/10/17 13:47:54;;;;;;;1.27;0.40;;;13.50;1.00;;;;;;5024500;28;20048;-61
2023/10/17 13:50:21;;;;;;;0.85;0.22;;;13.50;1.00;;;;;;5046099;28;20075;-61
2023/10/17 13:52:48;;;;;;;1.40;0.40;;;13.50;1.00;;;;;;5047443;28;20123;-61
2023/10/17 13:55:23;;;;;;;0.38;0.20;;;13.50;1.00;;;;;;5046592;28;20045;-61
2023/10/17 13:57:49;;;;;;;1.58;0.47;;;13.50;1.00;;;;;;5035278;28;20044;-61
2023/10/17 14:00:21;;;;;;;0.38;0.30;;;13.40;1.00;;;;;;5046258;28;20499;-61
2023/10/17 14:02:49;;;;;;;1.23;0.25;;;13.40;1.00;;;;;;5027876;28;20103;-61
2023/10/17 14:05:16;;;;;;;0.22;0.22;;;13.40;1.00;;;;;;5046921;28;20094;-61
2023/10/17 14:07:43;;;;;;;0.68;0.40;;;13.40;1.00;;;;;;5043160;28;20094;-61
2023/10/17 14:10:12;;;;;;;1.35;0.52;;;13.30;1.00;;;;;;5046886;28;20052;-61
2023/10/17 14:12:41;;;;;;;5.75;0.70;;;13.30;1.00;;;;;;5045476;28;20402;-61
2023/10/17 14:15:10;;;;;;;0.47;0.32;;;13.30;1.00;;;;;;5046723;28;20075;-61
2023/10/17 14:17:36;;;;;;;0.63;0.32;;;13.30;1.00;;;;;;5025590;28;20374;-61
2023/10/17 14:20:14;;;;;;;0.95;0.30;;;13.20;1.00;;;;;;5046347;28;20044;-61
2023/10/17 14:28:11;;;;;;;0.50;0.30;;;13.10;1.00;;;;;;5036497;28;20053;-61
2023/10/17 14:30:39;;;;;;;1.15;0.38;;;13.10;1.00;;;;;;5046107;28;20507;-61
2023/10/17 14:33:08;;;;;;;1.92;0.20;;;13.10;1.00;;;;;;5055263;28;20059;-62
2023/10/17 14:35:35;;;;;;;2.40;0.57;;;13.10;1.00;;;;;;5046504;28;20041;-61
2023/10/17 14:38:01;;;;;;;1.45;0.50;;;13.10;1.00;;;;;;5045094;28;20029;-61
2023/10/17 14:40:34;;;;;;;0.35;0.30;;;13.00;1.00;;;;;;5047261;28;20060;-61
2023/10/17 14:43:00;;;;;;;0.35;0.35;;;13.00;1.00;;;;;;5045711;28;20056;-61
2023/10/17 14:45:26;;;;;;;1.60;0.22;;;13.00;1.00;;;;;;5031489;28;20455;-61
2023/10/17 14:47:55;;;;;;;0.73;0.40;;;12.90;1.00;;;;;;5044634;28;20182;-61
2023/10/17 14:50:21;;;;;;;0.98;0.43;;;12.90;1.00;;;;;;5043384;28;20053;-61
2023/10/17 14:52:48;;;;;;;1.27;0.30;;;12.90;1.00;;;;;;5046622;28;20041;-61
2023/10/17 14:55:14;;;;;;;1.38;0.43;;;12.80;1.00;;;;;;5045569;28;20099;-61
2023/10/17 14:57:41;;;;;;;1.55;0.30;;;12.80;1.00;;;;;;5046623;28;20095;-61
2023/10/17 15:00:12;;;;;;;0.85;0.30;;;12.70;1.00;;;;;;5037991;28;20036;-61
2023/10/17 15:02:43;;;;;;;2.08;0.40;;;12.70;1.00;;;;;;5033641;28;20128;-61
2023/10/17 15:05:11;;;;;;;0.98;0.32;;;12.60;1.00;;;;;;5044954;28;20078;-61
2023/10/17 15:07:39;;;;;;;0.80;0.30;;;12.60;1.00;;;;;;5045896;28;20501;-61
2023/10/17 15:10:11;;;;;;;0.85;0.45;;;12.50;1.00;;;;;;5046563;28;20419;-61
2023/10/17 15:12:39;;;;;;;1.30;0.30;;;12.50;1.00;;;;;;5027724;28;20147;-61
2023/10/17 15:15:05;;;;;;;0.80;0.28;;;12.50;1.00;;;;;;5050936;28;20768;-61
2023/10/17 15:17:31;;;;;;;1.85;0.40;;;12.40;1.00;;;;;;5050464;28;20044;-61
2023/10/17 15:19:57;;;;;;;1.33;0.30;;;12.40;1.00;;;;;;5063462;28;20089;-61
2023/10/17 15:22:23;;;;;;;0.85;0.35;;;12.30;1.00;;;;;;5067589;28;20051;-61
2023/10/17 15:24:50;;;;;;;1.00;0.38;;;12.20;1.00;;;;;;5057474;28;20036;-61
2023/10/17 15:27:16;;;;;;;0.77;0.30;;;12.30;1.00;;;;;;5047544;28;20509;-61
2023/10/17 15:29:41;;;;;;;0.88;0.20;;;12.20;1.00;;;;;;5048249;28;20041;-61
2023/10/17 15:32:10;;;;;;;1.75;0.20;;;12.10;1.00;;;;;;5056499;28;20059;-61
2023/10/17 15:34:38;;;;;;;1.98;0.47;;;12.10;1.00;;;;;;5051422;28;20068;-61
2023/10/17 15:37:06;;;;;;;0.57;0.35;;;12.00;1.00;;;;;;5056018;28;20115;-61
2023/10/17 15:39:32;;;;;;;5.07;0.60;;;11.90;1.00;;;;;;5066605;28;20063;-62